createdAt,value
2023-05-09T00:01:10.949Z,2.17
2023-05-09T00:03:12.802Z,2.00
2023-05-09T00:05:15.158Z,1.90
2023-05-09T00:07:17.312Z,2.08
2023-05-09T00:09:19.013Z,2.60
2023-05-09T00:11:22.142Z,1.88
2023-05-09T00:13:24.423Z,2.45
2023-05-09T00:15:26.036Z,2.05
2023-05-09T00:17:28.613Z,2.00
2023-05-09T00:19:30.195Z,2.00
2023-05-09T00:21:31.751Z,2.25
2023-05-09T00:23:33.222Z,1.83
2023-05-09T00:25:34.710Z,2.05
2023-05-09T00:27:36.437Z,2.10
2023-05-09T00:29:37.959Z,2.38
2023-05-09T00:31:39.458Z,1.83
2023-05-09T00:33:40.950Z,2.47
2023-05-09T00:35:42.453Z,2.15
2023-05-09T00:37:43.972Z,1.98
2023-05-09T00:39:46.171Z,1.95
2023-05-09T00:41:47.672Z,2.00
2023-05-09T00:43:49.138Z,2.15
2023-05-09T00:45:50.834Z,2.38
2023-05-09T00:47:52.714Z,2.20
2023-05-09T00:49:54.695Z,2.20
2023-05-09T00:51:56.962Z,2.00
2023-05-09T00:53:58.764Z,2.22
2023-05-09T00:56:00.497Z,2.55
2023-05-09T00:58:03.741Z,2.30
2023-05-09T01:00:06.216Z,2.15
2023-05-09T01:02:07.692Z,2.70
2023-05-09T01:04:09.697Z,1.88
2023-05-09T01:06:11.133Z,2.15
2023-05-09T01:09:11.949Z,2.03
2023-05-09T01:11:26.662Z,2.70
2023-05-09T01:13:36.306Z,1.98
2023-05-09T01:15:54.662Z,2.33
2023-05-09T01:18:14.671Z,2.45
2023-05-09T01:20:25.155Z,2.38
2023-05-09T01:22:31.895Z,2.03
2023-05-09T01:24:57.381Z,2.40
2023-05-09T01:27:39.220Z,2.00
2023-05-09T01:29:47.166Z,2.10
2023-05-09T01:31:49.629Z,2.10
2023-05-09T01:33:56.476Z,2.20
2023-05-09T01:36:09.513Z,2.30
2023-05-09T01:38:17.263Z,2.10
2023-05-09T01:40:21.420Z,2.07
2023-05-09T01:42:25.972Z,2.17
2023-05-09T01:44:35.393Z,2.15
2023-05-09T01:46:38.025Z,2.20
2023-05-09T01:48:41.136Z,1.92
2023-05-09T01:50:44.482Z,1.88
2023-05-09T01:52:49.353Z,2.10
2023-05-09T01:54:51.498Z,2.05
2023-05-09T01:56:55.600Z,2.22
2023-05-09T01:58:58.622Z,2.08
2023-05-09T02:01:00.997Z,1.95
2023-05-09T02:03:04.303Z,2.00
2023-05-09T02:05:06.683Z,2.30
2023-05-09T02:07:08.694Z,2.25
2023-05-09T02:09:11.361Z,2.25
2023-05-09T02:11:13.067Z,1.80
2023-05-09T02:13:14.824Z,1.88
2023-05-09T02:15:16.857Z,2.15
2023-05-09T02:17:19.290Z,2.10
2023-05-09T02:19:20.762Z,2.10
2023-05-09T02:21:22.439Z,2.08
2023-05-09T02:23:23.887Z,1.77
2023-05-09T02:25:25.546Z,2.08
2023-05-09T02:27:27.703Z,1.85
2023-05-09T02:29:40.033Z,1.83
2023-05-09T02:31:43.230Z,2.10
2023-05-09T02:33:47.845Z,2.00
2023-05-09T02:35:50.031Z,2.15
2023-05-09T02:37:52.197Z,2.00
2023-05-09T02:39:55.014Z,1.73
2023-05-09T02:41:56.797Z,2.10
2023-05-09T02:43:58.257Z,1.80
2023-05-09T02:45:59.731Z,1.90
2023-05-09T02:48:01.288Z,2.40
2023-05-09T02:50:02.838Z,1.67
2023-05-09T02:52:04.769Z,1.70
2023-05-09T02:54:06.415Z,2.05
2023-05-09T02:56:08.810Z,1.88
2023-05-09T02:58:14.778Z,1.83
2023-05-09T03:00:18.022Z,2.00
2023-05-09T03:02:19.581Z,1.83
2023-05-09T03:04:21.138Z,1.60
2023-05-09T03:06:22.595Z,1.90
2023-05-09T03:08:24.074Z,1.80
2023-05-09T03:10:25.616Z,2.00
2023-05-09T03:12:27.076Z,1.98
2023-05-09T03:14:28.537Z,1.60
2023-05-09T03:16:30.279Z,2.45
2023-05-09T03:18:31.842Z,2.08
2023-05-09T03:20:33.317Z,2.10
2023-05-09T03:22:34.760Z,1.67
2023-05-09T03:24:36.935Z,1.63
2023-05-09T03:26:38.499Z,2.08
2023-05-09T03:28:40.564Z,2.13
2023-05-09T03:30:42.015Z,1.80
2023-05-09T03:32:43.548Z,2.25
2023-05-09T03:34:45.022Z,1.70
2023-05-09T03:36:46.551Z,2.08
2023-05-09T03:38:48.070Z,1.88
2023-05-09T03:40:50.056Z,2.17
2023-05-09T03:42:51.586Z,1.85
2023-05-09T03:44:53.164Z,1.92
2023-05-09T03:46:54.689Z,1.98
2023-05-09T03:48:56.223Z,2.10
2023-05-09T03:50:57.765Z,2.00
2023-05-09T03:52:59.413Z,1.92
2023-05-09T03:55:00.905Z,1.90
2023-05-09T03:57:02.418Z,1.83
2023-05-09T03:59:03.885Z,1.90
2023-05-09T04:01:05.769Z,2.20
2023-05-09T04:03:07.460Z,2.38
2023-05-09T04:05:09.174Z,2.28
2023-05-09T04:07:10.810Z,2.22
2023-05-09T04:09:12.303Z,2.10
2023-05-09T04:11:13.891Z,1.90
2023-05-09T04:13:15.465Z,2.10
2023-05-09T04:15:17.533Z,1.90
2023-05-09T04:17:19.045Z,2.30
2023-05-09T04:19:20.614Z,2.70
2023-05-09T04:21:22.134Z,2.30
2023-05-09T04:23:23.932Z,2.83
2023-05-09T04:25:26.019Z,2.40
2023-05-09T04:27:28.161Z,2.13
2023-05-09T04:29:29.653Z,2.20
2023-05-09T04:31:31.664Z,2.40
2023-05-09T04:33:33.243Z,3.17
2023-05-09T04:35:34.745Z,2.78
2023-05-09T04:37:36.205Z,2.55
2023-05-09T04:39:37.657Z,2.33
2023-05-09T04:41:39.138Z,3.75
2023-05-09T04:43:40.614Z,2.50
2023-05-09T04:45:42.101Z,2.22
2023-05-09T04:47:44.049Z,2.10
2023-05-09T04:49:45.546Z,2.35
2023-05-09T04:51:47.001Z,2.22
2023-05-09T04:53:48.494Z,2.90
2023-05-09T04:55:49.972Z,2.15
2023-05-09T04:57:51.398Z,2.15
2023-05-09T04:59:53.109Z,2.45
2023-05-09T05:01:54.674Z,2.53
2023-05-09T05:03:56.297Z,2.92
2023-05-09T05:05:58.382Z,2.08
2023-05-09T05:07:59.857Z,3.05
2023-05-09T05:10:01.387Z,2.72
2023-05-09T05:12:04.929Z,2.22
2023-05-09T05:14:07.510Z,2.53
2023-05-09T05:16:09.135Z,2.45
2023-05-09T05:18:10.713Z,2.40
2023-05-09T05:20:12.401Z,2.20
2023-05-09T05:22:13.837Z,2.00
2023-05-09T05:24:15.289Z,2.58
2023-05-09T05:26:16.727Z,2.30
2023-05-09T05:28:19.680Z,2.83
2023-05-09T05:30:21.278Z,2.58
2023-05-09T05:32:22.778Z,2.30
2023-05-09T05:34:24.209Z,2.70
2023-05-09T05:36:25.846Z,2.47
2023-05-09T05:38:27.295Z,2.78
2023-05-09T05:40:28.769Z,2.78
2023-05-09T05:42:30.782Z,2.70
2023-05-09T05:44:32.237Z,2.90
2023-05-09T05:46:33.696Z,2.50
2023-05-09T05:48:35.240Z,2.25
2023-05-09T05:50:36.745Z,2.88
2023-05-09T05:52:39.744Z,2.70
2023-05-09T05:54:41.458Z,2.65
2023-05-09T05:56:43.164Z,2.50
2023-05-09T05:58:44.634Z,2.83
2023-05-09T06:00:46.557Z,2.75
2023-05-09T06:02:48.259Z,2.40
2023-05-09T06:04:49.860Z,2.75
2023-05-09T06:06:51.389Z,3.10
2023-05-09T06:08:52.848Z,3.00
2023-05-09T06:10:54.320Z,2.70
2023-05-09T06:12:55.891Z,2.20
2023-05-09T06:14:57.447Z,2.40
2023-05-09T06:16:59.748Z,2.80
2023-05-09T06:19:01.320Z,2.47
2023-05-09T06:21:02.930Z,3.10
2023-05-09T06:23:04.532Z,2.78
2023-05-09T06:25:08.616Z,2.97
2023-05-09T06:27:11.737Z,2.85
2023-05-09T06:29:15.171Z,3.30
2023-05-09T06:31:16.742Z,3.00
2023-05-09T06:33:18.239Z,2.53
2023-05-09T06:35:19.698Z,3.00
2023-05-09T06:37:21.302Z,2.55
2023-05-09T06:39:22.800Z,3.08
2023-05-09T06:41:24.285Z,3.20
2023-05-09T06:43:26.388Z,2.67
2023-05-09T06:45:28.011Z,2.95
2023-05-09T06:47:29.495Z,3.25
2023-05-09T06:49:31.083Z,3.03
2023-05-09T06:51:32.751Z,3.28
2023-05-09T06:53:34.378Z,3.20
2023-05-09T06:55:36.167Z,3.50
2023-05-09T06:57:39.486Z,3.63
2023-05-09T06:59:40.953Z,3.20
2023-05-09T07:01:42.568Z,3.10
2023-05-09T07:03:44.436Z,3.05
2023-05-09T07:05:45.987Z,3.03
2023-05-09T07:07:47.513Z,3.70
2023-05-09T07:09:50.850Z,3.50
2023-05-09T07:11:57.653Z,3.55
2023-05-09T07:13:59.137Z,3.47
2023-05-09T07:16:00.697Z,3.15
2023-05-09T07:18:02.283Z,3.63
2023-05-09T07:20:04.906Z,3.85
2023-05-09T07:22:06.397Z,3.70
2023-05-09T07:24:07.933Z,3.50
2023-05-09T07:26:09.395Z,3.60
2023-05-09T07:28:12.673Z,3.70
2023-05-09T07:30:14.648Z,4.57
2023-05-09T07:32:16.309Z,3.78
2023-05-09T07:34:19.854Z,3.67
2023-05-09T07:36:21.366Z,3.33
2023-05-09T07:38:22.918Z,3.45
2023-05-09T07:40:24.348Z,3.40
2023-05-09T07:42:26.428Z,4.03
2023-05-09T07:44:27.945Z,3.72
2023-05-09T07:46:29.454Z,4.07
2023-05-09T07:48:31.013Z,3.63
2023-05-09T07:50:32.535Z,3.35
2023-05-09T07:52:34.129Z,3.78
2023-05-09T07:54:35.580Z,4.40
2023-05-09T07:56:37.095Z,4.13
2023-05-09T07:58:38.578Z,3.78
2023-05-09T08:00:40.750Z,4.15
2023-05-09T08:02:42.345Z,4.00
2023-05-09T08:04:43.970Z,4.32
2023-05-09T08:06:45.476Z,3.88
2023-05-09T08:08:47.017Z,4.68
2023-05-09T08:10:48.541Z,4.55
2023-05-09T08:12:50.078Z,4.47
2023-05-09T08:14:51.584Z,4.40
2023-05-09T08:16:53.124Z,4.15
2023-05-09T08:18:54.968Z,4.18
2023-05-09T08:20:56.645Z,4.30
2023-05-09T08:22:58.255Z,4.20
2023-05-09T08:24:59.823Z,4.15
2023-05-09T08:27:01.491Z,4.20
2023-05-09T08:29:02.997Z,4.78
2023-05-09T08:31:04.533Z,4.68
2023-05-09T08:33:06.154Z,4.47
2023-05-09T08:35:09.012Z,4.75
2023-05-09T08:37:11.501Z,4.80
2023-05-09T08:39:14.332Z,4.30
2023-05-09T08:41:16.393Z,5.05
2023-05-09T08:43:19.264Z,5.07
2023-05-09T08:45:27.526Z,5.47
2023-05-09T08:47:29.818Z,5.15
2023-05-09T08:49:31.747Z,4.82
2023-05-09T08:51:33.462Z,4.05
2023-05-09T08:53:34.968Z,4.50
2023-05-09T08:55:37.293Z,4.82
2023-05-09T08:57:38.756Z,5.07
2023-05-09T08:59:42.154Z,4.80
2023-05-09T09:01:43.817Z,4.55
2023-05-09T09:03:49.375Z,4.70
2023-05-09T09:05:53.264Z,4.63
2023-05-09T09:07:55.444Z,5.47
2023-05-09T09:09:58.750Z,5.22
2023-05-09T09:12:00.913Z,4.88
2023-05-09T09:14:10.084Z,4.85
2023-05-09T09:16:19.839Z,5.28
2023-05-09T09:18:24.041Z,5.43
2023-05-09T09:20:31.400Z,4.80
2023-05-09T09:22:34.938Z,4.90
2023-05-09T09:24:36.744Z,5.20
2023-05-09T09:26:46.609Z,6.13
2023-05-09T09:28:48.101Z,5.35
2023-05-09T09:30:49.787Z,5.57
2023-05-09T09:32:51.290Z,5.70
2023-05-09T09:35:06.975Z,5.40
2023-05-09T09:37:08.435Z,5.20
2023-05-09T09:39:13.237Z,5.25
2023-05-09T09:41:15.287Z,4.97
2023-05-09T09:43:16.756Z,6.00
2023-05-09T09:45:20.328Z,5.72
2023-05-09T09:47:31.588Z,5.30
2023-05-09T09:49:33.059Z,6.18
2023-05-09T09:51:35.602Z,6.40
2023-05-09T09:53:41.398Z,5.80
2023-05-09T09:55:50.797Z,5.07
2023-05-09T09:57:52.417Z,5.82
2023-05-09T10:00:00.767Z,6.13
2023-05-09T10:02:07.507Z,5.85
2023-05-09T10:04:16.468Z,5.70
2023-05-09T10:06:18.237Z,6.00
2023-05-09T10:08:19.902Z,5.13
2023-05-09T10:10:21.894Z,5.40
2023-05-09T10:12:23.512Z,5.88
2023-05-09T10:14:26.284Z,6.07
2023-05-09T10:16:42.589Z,5.00
2023-05-09T10:18:45.200Z,5.68
2023-05-09T10:20:47.291Z,5.50
2023-05-09T10:22:50.456Z,5.00
2023-05-09T10:25:06.419Z,4.72
2023-05-09T10:27:11.732Z,4.53
2023-05-09T10:29:22.755Z,4.70
2023-05-09T10:31:27.290Z,5.13
2023-05-09T10:33:46.756Z,5.15
2023-05-09T10:35:49.731Z,4.90
2023-05-09T10:37:55.209Z,4.93
2023-05-09T10:39:57.057Z,4.47
2023-05-09T10:41:59.222Z,4.40
2023-05-09T10:44:00.869Z,4.70
2023-05-09T10:46:06.361Z,4.32
2023-05-09T10:48:09.278Z,4.80
2023-05-09T10:50:15.658Z,5.25
2023-05-09T10:52:17.380Z,4.97
2023-05-09T10:54:31.004Z,4.32
2023-05-09T10:56:36.207Z,4.60
2023-05-09T10:58:39.112Z,4.80
2023-05-09T11:00:42.383Z,5.03
2023-05-09T11:03:07.939Z,4.43
2023-05-09T11:05:19.651Z,4.40
2023-05-09T11:07:25.739Z,4.47
2023-05-09T11:09:33.200Z,4.15
2023-05-09T11:11:50.755Z,4.03
2023-05-09T11:13:57.942Z,4.20
2023-05-09T11:15:59.452Z,4.70
2023-05-09T11:18:09.371Z,5.03
2023-05-09T11:20:10.941Z,4.45
2023-05-09T11:22:14.212Z,4.40
2023-05-09T11:24:18.974Z,4.38
2023-05-09T11:26:23.429Z,4.15
2023-05-09T11:28:36.519Z,3.47
2023-05-09T11:30:43.362Z,3.95
2023-05-09T11:32:46.323Z,3.53
2023-05-09T11:34:49.780Z,3.55
2023-05-09T11:36:51.447Z,4.20
2023-05-09T11:39:07.702Z,3.53
2023-05-09T11:41:09.393Z,3.42
2023-05-09T11:43:11.005Z,4.30
2023-05-09T11:45:13.617Z,4.03
2023-05-09T11:47:16.449Z,4.00
2023-05-09T11:49:19.579Z,4.10
2023-05-09T11:51:21.198Z,3.95
2023-05-09T11:53:23.049Z,3.67
2023-05-09T11:55:30.086Z,3.33
2023-05-09T11:57:32.369Z,3.58
2023-05-09T11:59:38.393Z,3.40
2023-05-09T12:01:39.968Z,3.25
2023-05-09T12:03:45.140Z,3.75
2023-05-09T12:05:48.531Z,3.33
2023-05-09T12:07:50.768Z,3.47
2023-05-09T12:09:52.369Z,3.58
2023-05-09T12:11:53.837Z,3.08
2023-05-09T12:13:55.409Z,3.60
2023-05-09T12:16:03.188Z,3.97
2023-05-09T12:18:06.697Z,3.60
2023-05-09T12:20:09.376Z,4.05
2023-05-09T12:22:11.215Z,3.90
2023-05-09T12:24:12.684Z,3.78
2023-05-09T12:26:14.595Z,3.22
2023-05-09T12:28:16.830Z,4.18
2023-05-09T12:30:18.691Z,3.78
2023-05-09T12:32:20.819Z,3.50
2023-05-09T12:34:23.082Z,3.53
2023-05-09T12:36:24.642Z,3.35
2023-05-09T12:38:26.097Z,3.85
2023-05-09T12:40:27.856Z,3.63
2023-05-09T12:42:29.810Z,3.90
2023-05-09T12:44:31.433Z,3.50
2023-05-09T12:46:33.508Z,3.45
2023-05-09T12:48:38.684Z,3.83
2023-05-09T12:50:40.749Z,3.40
2023-05-09T12:53:02.161Z,3.40
2023-05-09T12:55:14.251Z,3.70
2023-05-09T12:57:23.336Z,3.25
2023-05-09T12:59:27.007Z,3.60
2023-05-09T13:01:29.603Z,4.10
2023-05-09T13:03:37.770Z,3.92
2023-05-09T13:05:39.348Z,3.65
2023-05-09T13:07:43.118Z,4.05
2023-05-09T13:09:56.999Z,3.55
2023-05-09T13:11:58.615Z,3.60
2023-05-09T13:14:00.375Z,3.83
2023-05-09T13:16:03.812Z,3.33
2023-05-09T13:18:05.563Z,3.40
2023-05-09T13:20:08.559Z,4.10
2023-05-09T13:22:12.133Z,5.47
2023-05-09T13:24:13.832Z,3.85
2023-05-09T13:26:15.966Z,3.67
2023-05-09T13:28:17.530Z,3.50
2023-05-09T13:30:19.562Z,3.25
2023-05-09T13:32:21.311Z,3.60
2023-05-09T13:34:22.867Z,3.13
2023-05-09T13:36:24.405Z,3.40
2023-05-09T13:38:25.951Z,3.40
2023-05-09T13:40:27.398Z,3.60
2023-05-09T13:42:28.993Z,3.53
2023-05-09T13:44:30.680Z,3.15
2023-05-09T13:46:32.285Z,3.85
2023-05-09T13:48:33.816Z,3.67
2023-05-09T13:50:35.257Z,3.50
2023-05-09T13:52:36.747Z,3.22
2023-05-09T13:54:38.277Z,3.25
2023-05-09T13:56:39.817Z,3.40
2023-05-09T13:58:41.362Z,3.25
2023-05-09T14:00:42.890Z,3.10
2023-05-09T14:02:44.345Z,3.00
2023-05-09T14:04:45.911Z,3.33
2023-05-09T14:06:48.296Z,3.20
2023-05-09T14:08:49.895Z,3.20
2023-05-09T14:10:51.425Z,2.72
2023-05-09T14:12:53.498Z,3.20
2023-05-09T14:14:54.983Z,3.40
2023-05-09T14:16:57.145Z,3.65
2023-05-09T14:18:58.643Z,3.00
2023-05-09T14:21:00.109Z,3.00
2023-05-09T14:23:01.649Z,3.05
2023-05-09T14:25:03.229Z,3.17
2023-05-09T14:27:04.762Z,3.08
2023-05-09T14:29:06.784Z,3.38
2023-05-09T14:31:08.225Z,3.80
2023-05-09T14:33:09.754Z,3.65
2023-05-09T14:35:11.344Z,3.20
2023-05-09T14:37:15.780Z,3.47
2023-05-09T14:39:17.350Z,3.20
2023-05-09T14:41:20.895Z,3.13
2023-05-09T14:43:22.973Z,3.30
2023-05-09T14:45:25.119Z,2.92
2023-05-09T14:47:26.797Z,3.17
2023-05-09T14:49:28.633Z,3.40
2023-05-09T14:51:31.729Z,3.00
2023-05-09T14:53:35.487Z,2.92
2023-05-09T14:55:37.231Z,2.63
2023-05-09T14:57:38.663Z,2.90
2023-05-09T14:59:40.152Z,2.90
2023-05-09T15:01:41.834Z,2.75
2023-05-09T15:03:43.472Z,2.33
2023-05-09T15:05:45.066Z,2.28
2023-05-09T15:07:46.538Z,2.65
2023-05-09T15:09:47.986Z,2.90
2023-05-09T15:11:49.590Z,2.63
2023-05-09T15:13:53.284Z,2.70
2023-05-09T15:15:54.743Z,2.80
2023-05-09T15:17:56.260Z,2.85
2023-05-09T15:19:57.726Z,2.83
2023-05-09T15:21:59.938Z,3.03
2023-05-09T15:24:02.470Z,2.97
2023-05-09T15:26:04.177Z,2.78
2023-05-09T15:28:06.898Z,2.92
2023-05-09T15:30:09.972Z,2.63
2023-05-09T15:32:11.480Z,2.75
2023-05-09T15:34:13.044Z,2.47
2023-05-09T15:36:14.582Z,2.35
2023-05-09T15:38:16.113Z,2.40
2023-05-09T15:40:17.777Z,3.00
2023-05-09T15:42:19.531Z,2.80
2023-05-09T15:44:20.988Z,2.67
2023-05-09T15:46:22.551Z,2.90
2023-05-09T15:48:24.805Z,2.80
2023-05-09T15:50:26.711Z,2.70
2023-05-09T15:52:28.242Z,2.72
2023-05-09T15:54:31.746Z,2.67
2023-05-09T15:56:33.305Z,3.55
2023-05-09T15:58:35.122Z,2.55
2023-05-09T16:00:37.535Z,2.70
2023-05-09T16:02:39.263Z,3.00
2023-05-09T16:04:42.403Z,2.85
2023-05-09T16:06:44.548Z,3.33
2023-05-09T16:08:46.455Z,3.10
2023-05-09T16:10:49.090Z,3.05
2023-05-09T16:12:50.751Z,3.25
2023-05-09T16:14:52.319Z,2.58
2023-05-09T16:16:53.879Z,3.05
2023-05-09T16:18:55.560Z,3.00
2023-05-09T16:20:57.070Z,3.13
2023-05-09T16:22:58.556Z,3.15
2023-05-09T16:25:00.035Z,3.35
2023-05-09T16:27:01.493Z,4.18
2023-05-09T16:29:03.072Z,4.75
2023-05-09T16:31:05.075Z,5.88
2023-05-09T16:33:06.649Z,4.70
2023-05-09T16:35:08.609Z,4.30
2023-05-09T16:37:10.162Z,4.13
2023-05-09T16:39:11.735Z,3.20
2023-05-09T16:41:13.218Z,3.42
2023-05-09T16:43:16.396Z,2.92
2023-05-09T16:45:17.872Z,3.17
2023-05-09T16:47:19.359Z,3.33
2023-05-09T16:49:21.018Z,3.20
2023-05-09T16:51:22.496Z,2.70
2023-05-09T16:53:25.420Z,3.28
2023-05-09T16:55:28.715Z,3.17
2023-05-09T16:57:30.161Z,2.75
2023-05-09T16:59:32.798Z,3.20
2023-05-09T17:01:34.348Z,3.10
2023-05-09T17:03:35.838Z,3.00
2023-05-09T17:05:37.284Z,2.70
2023-05-09T17:07:38.731Z,3.10
2023-05-09T17:09:40.345Z,3.22
2023-05-09T17:11:41.789Z,3.53
2023-05-09T17:13:44.058Z,3.83
2023-05-09T17:15:45.636Z,3.72
2023-05-09T17:17:47.423Z,3.75
2023-05-09T17:19:48.905Z,4.22
2023-05-09T17:21:50.683Z,3.85
2023-05-09T17:23:53.907Z,4.25
2023-05-09T17:25:55.361Z,3.85
2023-05-09T17:27:56.874Z,3.70
2023-05-09T17:29:58.515Z,3.33
2023-05-09T17:32:02.957Z,4.13
2023-05-09T17:34:05.515Z,4.00
2023-05-09T17:36:07.425Z,3.28
2023-05-09T17:38:08.980Z,4.13
2023-05-09T17:40:10.735Z,3.80
2023-05-09T17:42:12.818Z,3.58
2023-05-09T17:44:14.505Z,3.85
2023-05-09T17:46:16.063Z,3.70
2023-05-09T17:48:18.210Z,3.72
2023-05-09T17:50:20.764Z,3.20
2023-05-09T17:52:22.288Z,3.80
2023-05-09T17:54:24.570Z,3.50
2023-05-09T17:56:26.916Z,4.10
2023-05-09T17:58:28.408Z,3.80
2023-05-09T18:00:30.041Z,3.45
2023-05-09T18:02:31.590Z,3.20
2023-05-09T18:04:34.360Z,3.75
2023-05-09T18:06:36.365Z,3.97
2023-05-09T18:08:38.009Z,3.70
2023-05-09T18:10:40.891Z,3.38
2023-05-09T18:12:45.092Z,3.30
2023-05-09T18:14:46.686Z,3.80
2023-05-09T18:16:48.239Z,3.80
2023-05-09T18:18:49.790Z,3.58
2023-05-09T18:20:51.274Z,3.83
2023-05-09T18:22:54.201Z,3.70
2023-05-09T18:24:55.736Z,3.90
2023-05-09T18:26:57.552Z,4.10
2023-05-09T18:28:59.064Z,3.67
2023-05-09T18:31:01.375Z,3.80
2023-05-09T18:33:04.066Z,3.38
2023-05-09T18:35:06.459Z,3.13
2023-05-09T18:37:07.981Z,3.10
2023-05-09T18:39:11.745Z,2.67
2023-05-09T18:41:13.803Z,3.40
2023-05-09T18:43:16.912Z,4.65
2023-05-09T18:45:18.618Z,7.10
2023-05-09T18:47:20.082Z,5.38
2023-05-09T18:49:22.537Z,5.20
2023-05-09T18:51:25.228Z,6.00
2023-05-09T18:53:26.785Z,5.60
2023-05-09T18:55:28.281Z,5.95
2023-05-09T18:57:29.802Z,7.03
2023-05-09T18:59:31.828Z,5.97
2023-05-09T19:01:33.351Z,6.82
2023-05-09T19:03:34.801Z,6.15
2023-05-09T19:05:36.262Z,6.32
2023-05-09T19:07:38.595Z,5.90
2023-05-09T19:09:40.243Z,6.30
2023-05-09T19:11:41.873Z,6.22
2023-05-09T19:13:48.565Z,6.95
2023-05-09T19:15:50.360Z,6.97
2023-05-09T19:17:51.962Z,6.78
2023-05-09T19:19:53.706Z,6.18
2023-05-09T19:21:55.199Z,6.32
2023-05-09T19:23:56.777Z,6.28
2023-05-09T19:25:58.260Z,6.00
2023-05-09T19:28:00.037Z,6.60
2023-05-09T19:30:01.850Z,7.18
2023-05-09T19:32:03.401Z,6.35
2023-05-09T19:34:05.140Z,6.10
2023-05-09T19:36:06.863Z,6.10
2023-05-09T19:38:08.951Z,6.38
2023-05-09T19:40:11.353Z,6.57
2023-05-09T19:42:12.907Z,6.07
2023-05-09T19:44:14.367Z,6.03
2023-05-09T19:46:16.615Z,6.78
2023-05-09T19:48:18.228Z,6.50
2023-05-09T19:50:19.729Z,7.10
2023-05-09T19:52:21.446Z,7.00
2023-05-09T19:54:27.049Z,6.72
2023-05-09T19:56:28.489Z,6.72
2023-05-09T19:58:29.909Z,6.75
2023-05-09T20:00:32.254Z,7.05
2023-05-09T20:02:34.144Z,7.72
2023-05-09T20:04:36.541Z,8.90
2023-05-09T20:06:38.067Z,7.68
2023-05-09T20:08:39.494Z,7.57
2023-05-09T20:10:40.973Z,7.75
2023-05-09T20:12:42.521Z,7.20
2023-05-09T20:14:44.392Z,6.90
2023-05-09T20:16:46.045Z,6.85
2023-05-09T20:18:48.726Z,6.72
2023-05-09T20:20:51.578Z,7.43
2023-05-09T20:22:53.116Z,7.70
2023-05-09T20:24:54.567Z,6.93
2023-05-09T20:26:56.154Z,7.80
2023-05-09T20:29:01.466Z,6.57
2023-05-09T20:31:03.348Z,7.10
2023-05-09T20:33:04.959Z,7.45
2023-05-09T20:35:07.360Z,7.22
2023-05-09T20:37:08.985Z,6.90
2023-05-09T20:39:11.816Z,6.75
2023-05-09T20:41:13.452Z,6.57
2023-05-09T20:43:15.144Z,6.72
2023-05-09T20:45:16.736Z,6.72
2023-05-09T20:47:18.400Z,7.15
2023-05-09T20:49:19.930Z,6.75
2023-05-09T20:51:21.378Z,6.65
2023-05-09T20:53:26.397Z,6.65
2023-05-09T20:55:27.880Z,7.05
2023-05-09T20:57:29.343Z,7.18
2023-05-09T20:59:30.844Z,7.85
2023-05-09T21:01:36.545Z,7.45
2023-05-09T21:03:38.133Z,8.15
2023-05-09T21:05:39.706Z,8.00
2023-05-09T21:07:41.211Z,8.85
2023-05-09T21:09:42.734Z,7.60
2023-05-09T21:11:45.688Z,8.20
2023-05-09T21:13:47.140Z,8.77
2023-05-09T21:15:50.486Z,8.70
2023-05-09T21:17:51.998Z,8.18
2023-05-09T21:19:53.681Z,7.65
2023-05-09T21:21:55.312Z,8.40
2023-05-09T21:23:56.988Z,8.30
2023-05-09T21:25:58.426Z,8.13
2023-05-09T21:27:59.899Z,8.10
2023-05-09T21:30:01.420Z,7.35
2023-05-09T21:32:02.921Z,7.68
2023-05-09T21:34:09.869Z,7.63
2023-05-09T21:36:11.780Z,7.68
2023-05-09T21:38:13.871Z,7.93
2023-05-09T21:40:15.611Z,7.28
2023-05-09T21:42:17.286Z,8.07
2023-05-09T21:44:18.760Z,7.45
2023-05-09T21:46:20.266Z,8.02
2023-05-09T21:48:21.801Z,7.13
2023-05-09T21:50:23.551Z,7.80
2023-05-09T21:52:25.062Z,7.68
2023-05-09T21:54:26.506Z,7.55
2023-05-09T21:56:28.020Z,8.20
2023-05-09T21:58:29.485Z,7.30
2023-05-09T22:00:30.992Z,7.75
2023-05-09T22:02:34.045Z,8.40
2023-05-09T22:04:35.588Z,9.73
2023-05-09T22:06:37.193Z,8.95
2023-05-09T22:08:38.857Z,8.60
2023-05-09T22:10:40.786Z,8.20
2023-05-09T22:12:42.300Z,7.80
2023-05-09T22:14:55.320Z,8.20
2023-05-09T22:16:57.993Z,8.27
2023-05-09T22:18:59.590Z,7.78
2023-05-09T22:21:01.264Z,8.68
2023-05-09T22:23:02.813Z,8.48
2023-05-09T22:25:05.038Z,8.02
2023-05-09T22:27:06.835Z,8.27
2023-05-09T22:29:08.369Z,8.15
2023-05-09T22:31:10.527Z,8.45
2023-05-09T22:33:12.070Z,7.82
2023-05-09T22:35:13.674Z,8.15
2023-05-09T22:37:15.243Z,8.13
2023-05-09T22:39:16.702Z,7.43
2023-05-09T22:41:18.212Z,8.65
2023-05-09T22:43:20.357Z,8.00
2023-05-09T22:45:22.284Z,9.25
2023-05-09T22:47:23.769Z,7.95
2023-05-09T22:49:25.281Z,8.93
2023-05-09T22:51:27.755Z,8.55
2023-05-09T22:53:29.456Z,8.82
2023-05-09T22:55:30.950Z,8.82
2023-05-09T22:57:32.448Z,9.00
2023-05-09T22:59:34.420Z,9.05
2023-05-09T23:01:35.946Z,8.57
2023-05-09T23:03:37.457Z,8.60
2023-05-09T23:05:38.996Z,8.75
2023-05-09T23:07:40.519Z,8.32
2023-05-09T23:09:42.010Z,9.63
2023-05-09T23:11:43.536Z,9.48
2023-05-09T23:13:44.995Z,10.30
2023-05-09T23:15:49.226Z,11.02
2023-05-09T23:17:50.762Z,11.25
2023-05-09T23:19:52.241Z,11.80
2023-05-09T23:21:53.886Z,11.60
2023-05-09T23:23:55.371Z,11.48
2023-05-09T23:25:56.803Z,11.20
2023-05-09T23:27:58.274Z,10.88
2023-05-09T23:29:59.753Z,11.23
2023-05-09T23:32:01.265Z,10.98
2023-05-09T23:34:02.809Z,11.55
2023-05-09T23:36:04.565Z,10.30
2023-05-09T23:38:06.313Z,10.10
2023-05-09T23:40:08.298Z,9.70
2023-05-09T23:42:09.838Z,10.80
2023-05-09T23:44:12.222Z,9.82
2023-05-09T23:46:13.851Z,9.90
2023-05-09T23:48:15.624Z,9.85
2023-05-09T23:50:17.596Z,10.20
2023-05-09T23:52:19.328Z,10.15
2023-05-09T23:54:21.597Z,10.90
2023-05-09T23:56:23.068Z,10.35
2023-05-09T23:58:24.758Z,10.10
